Aérodrome :
LOGIN :

S'inscrire | Disclaimer

   EN    FR    IT 

 










Légende :    VFR   VFR Marginal   IFR   IFR Intensif   IFR Très Intensif
Visi : 
Plafond : 
>= 8 km
>= 3000ft
5 à 8 km
1000 à 3000 ft
1500m à 5 km
500 à 1000 ft
800 à 1500m
200 à 500 ft
< 800m
< 200 ft
Symboles :   Orages  Brouillard  Fortes neiges  Fortes précipitations  Vent > 20 kt
SIGMETs :   Divers  Orages  Givrage  Turbulence  Onde Orograph.  Cendres Volcan.







- Altitude de l'aérodrome : 197 ft
- Code IATA : XOG
- Voir les cartes d'approche


LFMO - Orange

DERNIER METAR :
  • 221730Z AUTO 19005KT 160V220 CAVOK 21/10 Q1017 NOSIG

METARs EXPIRÉS :
  • 221700Z AUTO 20006KT 160V230 CAVOK 22/10 Q1017 NOSIG
  • 221630Z AUTO 23010KT 190V250 CAVOK 23/09 Q1017 NOSIG
  • 221600Z AUTO 22010KT CAVOK 24/08 Q1017 NOSIG
  • 221530Z AUTO 22012KT CAVOK 25/10 Q1016 NOSIG
  • 221500Z AUTO 21009KT 160V240 CAVOK 26/09 Q1016 NOSIG

TAF TAF LFMO
Valide du 22 à 15h jusqu'au 23 à 15h UTC


221400Z 2215/2315 18012KT CAVOK
BECMG 2300/2302 VRB02KT
TEMPO 2302/2306 3000 BR
TEMPO 2312/2315 20012KT
Pas de NOTAMs connus pour ce terrain.



MET'MAP, la Météo Aéronautique d'un coup d'oeil ! - Copyright ORBIFLY Décembre 2007 - Disclaimer

ORBIFLY MET'MAP TEAM :

Programmation & Développement : Alexandra Zaïnal
Conception & Développement : Baudouin d'Aumeries
Co-Programmation & Développement : Marc-Olivier Méhu
Soutien technique & logistique : Manuel Goepfert

Contact : metmap@orbifly.com




SOURCES & CREDITS :

   NOAA